Time;durP1;ratioP1;P1;durP2;ratioP2;P2;SDS_P1;SDS_P2;PMS_P1;PMS_P2;Temp;Humidity;BMP_temperature;BMP_pressure;BME280_temperature;BME280_humidity;BME280_pressure;Samples;Min_cycle;Max_cycle;Signal;HPM_P1;HPM_P2
2022/06/27 00:00:28;;;;;;;8.55;2.85;;;24.80;95.10;;;;;;5093297;28;20036;-77
2022/06/27 00:02:53;;;;;;;11.13;2.97;;;24.80;95.30;;;;;;5093299;28;20439;-76
2022/06/27 00:05:19;;;;;;;9.52;3.08;;;24.70;95.50;;;;;;5089533;28;20158;-76
2022/06/27 00:07:45;;;;;;;11.15;3.38;;;24.70;95.20;;;;;;5092412;28;20504;-76
2022/06/27 00:10:11;;;;;;;6.47;3.00;;;24.70;95.50;;;;;;5093906;28;20032;-76
2022/06/27 00:12:38;;;;;;;11.10;3.50;;;24.60;95.90;;;;;;5093942;28;20513;-76
2022/06/27 00:15:04;;;;;;;7.15;2.92;;;24.40;96.00;;;;;;5084465;28;20470;-76
2022/06/27 00:17:30;;;;;;;9.82;2.70;;;24.40;96.20;;;;;;5091941;28;20032;-76
2022/06/27 00:19:57;;;;;;;7.78;2.75;;;24.40;96.00;;;;;;5091203;28;20067;-76
2022/06/27 00:22:22;;;;;;;7.78;3.13;;;24.40;96.30;;;;;;5087148;28;20032;-77
2022/06/27 00:24:48;;;;;;;9.27;3.38;;;24.50;96.30;;;;;;5091186;28;20035;-77
2022/06/27 00:27:14;;;;;;;11.50;3.25;;;24.60;96.10;;;;;;5092251;28;20489;-76
2022/06/27 00:29:40;;;;;;;7.50;3.42;;;24.60;95.00;;;;;;5092377;28;20052;-76
2022/06/27 00:32:07;;;;;;;8.23;2.90;;;24.50;94.50;;;;;;5092596;28;20474;-77
2022/06/27 00:34:33;;;;;;;11.50;3.55;;;24.50;94.40;;;;;;5090994;28;20547;-76
2022/06/27 00:36:58;;;;;;;8.88;3.60;;;24.40;94.80;;;;;;5088798;28;20025;-76
2022/06/27 00:39:24;;;;;;;11.50;2.83;;;24.50;94.00;;;;;;5091475;28;20048;-76
2022/06/27 00:41:50;;;;;;;6.35;2.40;;;24.50;94.40;;;;;;5092848;28;20470;-76
2022/06/27 00:44:31;;;;;;;8.43;3.50;;;24.50;94.80;;;;;;5091951;28;20042;-76
2022/06/27 00:46:57;;;;;;;8.88;2.60;;;24.40;95.50;;;;;;5090867;28;20115;-76
2022/06/27 00:49:23;;;;;;;8.02;3.22;;;24.30;96.00;;;;;;5092421;28;20346;-77
2022/06/27 00:51:49;;;;;;;7.63;3.05;;;24.20;96.50;;;;;;5090495;28;20035;-76
2022/06/27 00:54:15;;;;;;;11.80;3.65;;;24.10;96.80;;;;;;5088375;28;20055;-76
2022/06/27 00:56:40;;;;;;;13.02;2.78;;;24.00;97.00;;;;;;5090777;28;20028;-76
2022/06/27 00:59:06;;;;;;;7.65;2.92;;;24.10;97.10;;;;;;5091539;28;20081;-76
2022/06/27 01:01:32;;;;;;;11.45;3.78;;;24.10;97.10;;;;;;5090768;28;20040;-76
2022/06/27 01:04:00;;;;;;;11.98;3.28;;;24.10;97.10;;;;;;5091888;28;20082;-77
2022/06/27 01:06:27;;;;;;;12.07;3.75;;;24.20;96.80;;;;;;5089693;28;20032;-77
2022/06/27 01:08:52;;;;;;;9.82;3.55;;;24.20;96.80;;;;;;5091979;28;20047;-76
2022/06/27 01:11:19;;;;;;;8.70;3.88;;;24.20;96.70;;;;;;5090208;28;20470;-76
2022/06/27 01:13:44;;;;;;;10.77;3.13;;;24.20;97.00;;;;;;5086735;28;20027;-76
2022/06/27 01:16:10;;;;;;;11.10;2.88;;;24.10;96.60;;;;;;5086625;28;20021;-76
2022/06/27 01:18:36;;;;;;;9.48;3.42;;;24.10;96.60;;;;;;5092044;28;20020;-76
2022/06/27 01:21:02;;;;;;;8.70;2.97;;;24.00;96.60;;;;;;5092682;28;20044;-76
2022/06/27 01:23:27;;;;;;;11.60;3.05;;;24.00;96.70;;;;;;5090930;28;20028;-76
2022/06/27 01:25:54;;;;;;;9.95;3.42;;;24.00;96.70;;;;;;5091104;28;20060;-76
2022/06/27 01:28:20;;;;;;;7.82;3.25;;;24.00;96.70;;;;;;5088914;28;20040;-76
2022/06/27 01:30:47;;;;;;;9.05;2.90;;;24.00;96.70;;;;;;5092154;28;20445;-76
2022/06/27 01:33:12;;;;;;;7.25;3.00;;;23.90;96.80;;;;;;5089988;28;20109;-76
2022/06/27 01:35:38;;;;;;;9.18;3.15;;;23.80;96.90;;;;;;5088441;28;20081;-76
2022/06/27 01:38:04;;;;;;;8.70;2.95;;;23.90;97.00;;;;;;5090954;28;20047;-77
2022/06/27 01:40:29;;;;;;;12.90;2.75;;;23.90;97.00;;;;;;5091328;28;20113;-76
2022/06/27 01:42:56;;;;;;;9.57;2.78;;;23.90;97.10;;;;;;5090178;28;20156;-76
2022/06/27 01:45:22;;;;;;;9.80;3.50;;;23.80;97.10;;;;;;5087297;28;20071;-76
2022/06/27 01:47:48;;;;;;;7.88;2.58;;;23.60;97.10;;;;;;5088598;28;20098;-76
2022/06/27 01:50:17;;;;;;;11.70;3.40;;;23.50;97.40;;;;;;5092417;28;20043;-76
2022/06/27 01:52:46;;;;;;;9.00;3.33;;;23.50;97.20;;;;;;5089923;28;20493;-76
2022/06/27 01:55:11;;;;;;;7.90;3.10;;;23.30;97.50;;;;;;5090089;28;20032;-76
2022/06/27 01:57:37;;;;;;;11.88;3.38;;;23.30;97.70;;;;;;5092041;28;20032;-76
2022/06/27 02:00:06;;;;;;;9.55;3.15;;;23.30;97.80;;;;;;5090409;28;20040;-76
2022/06/27 02:02:33;;;;;;;10.82;3.15;;;23.10;98.10;;;;;;5086008;28;20028;-76
2022/06/27 02:04:59;;;;;;;8.48;3.13;;;23.20;98.10;;;;;;5091067;28;20481;-76
2022/06/27 02:07:25;;;;;;;9.63;3.05;;;23.20;98.20;;;;;;5092623;28;20055;-76
2022/06/27 02:09:50;;;;;;;9.65;2.70;;;23.30;98.10;;;;;;5088657;28;20688;-76
2022/06/27 02:12:19;;;;;;;10.25;3.08;;;23.50;97.40;;;;;;5091315;28;20039;-76
2022/06/27 02:14:49;;;;;;;9.18;3.30;;;23.60;97.00;;;;;;5087806;28;20055;-76
2022/06/27 02:17:16;;;;;;;10.88;3.85;;;23.40;97.40;;;;;;5091445;28;20034;-76
2022/06/27 02:19:43;;;;;;;6.90;3.75;;;23.30;97.80;;;;;;5087565;28;20046;-76
2022/06/27 02:22:10;;;;;;;8.48;2.75;;;23.40;98.00;;;;;;5088473;28;20077;-76
2022/06/27 02:24:36;;;;;;;23.92;3.55;;;23.50;97.80;;;;;;5088005;28;20056;-77
2022/06/27 02:27:03;;;;;;;10.57;3.33;;;23.50;97.70;;;;;;5090283;28;20117;-76
2022/06/27 02:29:28;;;;;;;7.35;3.03;;;23.50;97.80;;;;;;5091131;28;20561;-77
2022/06/27 02:31:58;;;;;;;9.68;3.13;;;23.80;97.10;;;;;;5089424;28;20436;-77
2022/06/27 02:34:24;;;;;;;11.13;3.00;;;23.70;97.10;;;;;;5089262;28;20028;-76
2022/06/27 02:36:50;;;;;;;6.25;3.38;;;23.60;97.50;;;;;;5085793;28;20044;-76
2022/06/27 02:39:20;;;;;;;8.48;3.03;;;23.50;97.20;;;;;;5089467;28;20020;-76
2022/06/27 02:41:47;;;;;;;10.63;3.78;;;23.60;97.20;;;;;;5091883;28;20032;-76
2022/06/27 02:44:14;;;;;;;9.07;2.92;;;23.50;97.10;;;;;;5088436;28;20074;-76
2022/06/27 02:46:41;;;;;;;7.80;2.95;;;23.70;96.90;;;;;;5091139;28;20024;-76
2022/06/27 02:49:08;;;;;;;10.02;2.95;;;23.70;97.00;;;;;;5090534;28;20103;-76
2022/06/27 02:51:42;;;;;;;6.65;2.88;;;23.70;97.00;;;;;;5091486;28;20032;-76
2022/06/27 02:54:20;;;;;;;8.40;3.08;;;23.70;97.00;;;;;;5086922;28;20050;-76
2022/06/27 02:56:52;;;;;;;10.32;3.30;;;23.60;97.10;;;;;;5090814;28;20039;-76
2022/06/27 02:59:27;;;;;;;9.82;3.90;;;23.60;97.10;;;;;;5089067;28;20040;-76
2022/06/27 03:01:56;;;;;;;9.35;3.90;;;23.60;97.20;;;;;;5089678;28;20405;-76
2022/06/27 03:04:22;;;;;;;12.00;3.33;;;23.60;97.20;;;;;;5080465;28;20028;-76
2022/06/27 03:06:49;;;;;;;9.50;3.22;;;23.60;97.20;;;;;;5083573;28;20484;-76
2022/06/27 03:09:18;;;;;;;13.77;4.00;;;23.60;97.10;;;;;;5084368;28;20036;-76
2022/06/27 03:11:47;;;;;;;10.13;3.05;;;23.70;97.10;;;;;;5076576;28;20032;-76
2022/06/27 03:14:13;;;;;;;8.68;3.53;;;23.60;97.00;;;;;;5085142;28;20105;-76
2022/06/27 03:16:39;;;;;;;10.68;3.28;;;23.60;97.20;;;;;;5083534;28;20028;-77
2022/06/27 03:19:05;;;;;;;15.70;4.30;;;23.50;97.30;;;;;;5082913;28;20606;-76
2022/06/27 03:21:31;;;;;;;11.15;3.22;;;23.60;97.30;;;;;;5082742;28;20044;-76
2022/06/27 03:23:57;;;;;;;8.40;3.58;;;23.50;97.40;;;;;;5087280;28;20508;-76
2022/06/27 03:26:22;;;;;;;11.70;3.83;;;23.50;97.30;;;;;;5089067;28;20067;-76
2022/06/27 03:28:48;;;;;;;11.05;3.13;;;23.40;97.40;;;;;;5085855;28;20093;-76
2022/06/27 03:31:15;;;;;;;9.55;3.20;;;23.50;97.30;;;;;;5089913;28;20048;-76
2022/06/27 03:33:41;;;;;;;9.10;3.22;;;23.40;97.40;;;;;;5088984;28;20028;-76
2022/06/27 03:36:07;;;;;;;8.40;3.05;;;23.40;97.50;;;;;;5087632;28;20024;-76
2022/06/27 03:38:33;;;;;;;9.60;3.33;;;23.30;97.60;;;;;;5090765;28;20043;-76
2022/06/27 03:40:59;;;;;;;10.63;2.97;;;23.10;98.00;;;;;;5089178;28;20039;-76
2022/06/27 03:43:25;;;;;;;10.38;3.33;;;23.00;98.20;;;;;;5089358;28;20029;-76
2022/06/27 03:45:51;;;;;;;7.38;4.07;;;22.90;98.40;;;;;;5086489;28;20086;-77
2022/06/27 03:51:01;;;;;;;8.77;3.38;;;22.80;98.80;;;;;;5087234;28;20081;-76
2022/06/27 03:53:27;;;;;;;10.13;3.55;;;22.70;98.90;;;;;;5086361;28;20036;-76
2022/06/27 03:55:53;;;;;;;11.63;3.45;;;22.80;98.90;;;;;;5085369;28;20028;-76
2022/06/27 03:58:18;;;;;;;10.70;3.95;;;22.70;99.00;;;;;;5085568;28;20032;-76
2022/06/27 04:00:44;;;;;;;10.18;3.45;;;22.60;99.10;;;;;;5085360;28;20042;-76
2022/06/27 04:03:10;;;;;;;8.95;3.30;;;22.70;99.00;;;;;;5075841;28;20545;-76
2022/06/27 04:05:35;;;;;;;7.35;3.47;;;22.70;99.20;;;;;;5087469;28;20089;-76
2022/06/27 04:08:02;;;;;;;9.50;3.20;;;22.40;99.70;;;;;;5084848;28;20393;-77
2022/06/27 04:10:27;;;;;;;10.90;3.35;;;22.40;99.70;;;;;;5085970;28;20020;-76
2022/06/27 04:12:53;;;;;;;7.47;3.60;;;22.40;99.90;;;;;;5084921;28;20099;-76
2022/06/27 04:15:19;;;;;;;7.78;3.30;;;22.40;99.90;;;;;;5082184;28;20036;-76
2022/06/27 04:17:44;;;;;;;9.57;3.92;;;22.30;99.90;;;;;;5086589;28;20032;-76
2022/06/27 04:20:11;;;;;;;6.55;3.72;;;22.30;99.90;;;;;;5082937;28;20048;-76
2022/06/27 04:22:37;;;;;;;13.35;3.30;;;22.40;99.90;;;;;;5085261;28;20025;-76
2022/06/27 04:25:03;;;;;;;11.07;3.60;;;22.60;99.80;;;;;;5084693;28;20089;-77
2022/06/27 04:27:29;;;;;;;14.95;3.80;;;22.60;99.60;;;;;;5086369;28;20053;-76
2022/06/27 04:29:55;;;;;;;7.22;3.33;;;22.80;99.30;;;;;;5084004;28;20565;-76
2022/06/27 04:32:23;;;;;;;8.98;3.45;;;22.80;99.20;;;;;;5079721;28;20055;-76
2022/06/27 04:34:49;;;;;;;12.50;4.68;;;23.00;98.60;;;;;;5078970;28;21028;-76
2022/06/27 04:37:16;;;;;;;11.75;4.28;;;23.00;98.60;;;;;;5077645;28;20024;-77
2022/06/27 04:39:42;;;;;;;12.98;3.83;;;23.00;98.40;;;;;;5085891;28;20088;-76
2022/06/27 04:42:08;;;;;;;10.07;4.28;;;23.00;98.80;;;;;;5083226;28;20035;-76
2022/06/27 04:44:40;;;;;;;12.80;3.80;;;22.80;98.80;;;;;;5084083;28;20127;-76
2022/06/27 04:47:07;;;;;;;13.73;3.65;;;22.90;98.80;;;;;;5084514;28;20027;-77
2022/06/27 04:49:33;;;;;;;13.88;3.95;;;22.80;99.00;;;;;;5083175;28;20043;-76
2022/06/27 04:51:59;;;;;;;6.45;3.33;;;22.70;99.60;;;;;;5082940;28;20047;-76
2022/06/27 04:54:26;;;;;;;9.52;3.30;;;22.80;99.40;;;;;;5082160;28;20047;-77
2022/06/27 04:56:55;;;;;;;8.32;3.22;;;22.80;99.00;;;;;;5084217;28;20115;-76
2022/06/27 04:59:21;;;;;;;9.00;3.65;;;22.90;98.70;;;;;;5086083;28;20031;-76
2022/06/27 05:01:50;;;;;;;8.60;3.30;;;23.10;98.30;;;;;;5082655;28;20395;-76
2022/06/27 05:04:19;;;;;;;9.77;3.53;;;23.10;98.20;;;;;;5085266;28;20039;-76
2022/06/27 05:06:46;;;;;;;10.93;3.70;;;23.10;98.20;;;;;;5082189;28;20078;-76
2022/06/27 05:09:16;;;;;;;14.43;3.83;;;23.00;98.60;;;;;;5083408;28;20036;-76
2022/06/27 05:11:44;;;;;;;10.65;4.18;;;23.00;98.50;;;;;;5083665;28;20024;-76
2022/06/27 05:14:10;;;;;;;8.90;3.25;;;23.10;98.60;;;;;;5085565;28;20502;-76
2022/06/27 05:16:36;;;;;;;8.45;3.55;;;23.20;98.40;;;;;;5088663;28;20042;-76
2022/06/27 05:19:02;;;;;;;10.80;4.63;;;23.10;98.70;;;;;;5087562;28;20035;-76
2022/06/27 05:21:28;;;;;;;6.53;3.13;;;23.10;99.10;;;;;;5088364;28;20055;-76
2022/06/27 05:23:53;;;;;;;8.00;3.25;;;23.00;98.90;;;;;;5085427;28;20039;-76
2022/06/27 05:26:19;;;;;;;12.10;3.33;;;23.10;98.70;;;;;;5083645;28;20036;-76
2022/06/27 05:28:45;;;;;;;7.88;4.05;;;23.20;98.60;;;;;;5086041;28;20077;-76
2022/06/27 05:31:11;;;;;;;10.80;3.15;;;23.20;98.60;;;;;;5086371;28;20051;-76
2022/06/27 05:33:38;;;;;;;11.25;3.35;;;23.30;99.20;;;;;;5085634;28;20502;-76
2022/06/27 05:36:04;;;;;;;6.30;3.20;;;23.30;99.30;;;;;;5084138;28;20530;-76
2022/06/27 05:38:31;;;;;;;10.98;3.50;;;23.20;98.90;;;;;;5084560;28;20036;-77
2022/06/27 05:40:57;;;;;;;12.57;3.80;;;23.20;98.80;;;;;;5085979;28;20035;-77
2022/06/27 05:43:24;;;;;;;9.50;3.63;;;23.10;98.90;;;;;;5079195;28;20691;-77
2022/06/27 05:45:49;;;;;;;10.02;4.07;;;23.00;98.70;;;;;;5086532;28;20038;-77
2022/06/27 05:48:16;;;;;;;7.75;3.45;;;23.00;98.50;;;;;;5083320;28;20024;-76
2022/06/27 05:50:41;;;;;;;11.52;3.95;;;23.10;98.60;;;;;;5086061;28;20024;-76
2022/06/27 05:53:07;;;;;;;10.25;4.55;;;23.20;98.80;;;;;;5085600;28;20020;-76
2022/06/27 05:55:33;;;;;;;10.93;3.75;;;23.40;99.10;;;;;;5087119;28;20032;-76
2022/06/27 05:58:00;;;;;;;10.57;4.65;;;23.50;98.60;;;;;;5083746;28;20537;-76
2022/06/27 06:00:27;;;;;;;8.98;4.15;;;23.60;98.40;;;;;;5082355;28;20374;-77
2022/06/27 06:02:54;;;;;;;16.08;3.85;;;23.60;98.60;;;;;;5081066;28;20089;-77
2022/06/27 06:05:20;;;;;;;8.15;4.03;;;23.60;98.90;;;;;;5081617;28;20376;-77
2022/06/27 06:07:46;;;;;;;11.70;4.55;;;23.50;98.50;;;;;;5084063;28;20687;-76
2022/06/27 06:10:13;;;;;;;10.32;4.55;;;23.60;98.90;;;;;;5081328;28;20142;-76
2022/06/27 06:12:39;;;;;;;9.05;3.60;;;23.80;99.00;;;;;;5082612;28;20378;-76
2022/06/27 06:15:05;;;;;;;7.00;3.58;;;23.80;98.40;;;;;;5083183;28;20374;-75
2022/06/27 06:17:33;;;;;;;11.75;3.83;;;23.90;98.20;;;;;;5080887;28;20099;-74
2022/06/27 06:19:59;;;;;;;11.80;3.85;;;23.90;98.40;;;;;;5078233;28;20032;-75
2022/06/27 06:22:25;;;;;;;12.85;3.80;;;24.00;97.70;;;;;;5081224;28;20070;-76
2022/06/27 06:24:51;;;;;;;8.25;3.50;;;24.00;97.90;;;;;;5085162;28;20043;-75
2022/06/27 06:27:18;;;;;;;7.25;3.53;;;24.10;97.80;;;;;;5083599;28;20020;-76
2022/06/27 06:29:44;;;;;;;9.85;4.47;;;24.10;97.70;;;;;;5082346;28;20080;-76
2022/06/27 06:32:11;;;;;;;11.52;3.50;;;24.10;97.80;;;;;;5083108;28;20032;-77
2022/06/27 06:34:37;;;;;;;10.43;3.78;;;24.10;97.70;;;;;;5081530;28;20032;-76
2022/06/27 06:37:03;;;;;;;9.50;4.10;;;24.10;97.80;;;;;;5082913;28;20020;-76
2022/06/27 06:39:29;;;;;;;9.07;3.97;;;24.10;97.70;;;;;;5080630;28;20464;-76
2022/06/27 06:41:57;;;;;;;10.88;4.25;;;24.10;97.80;;;;;;5081798;28;20043;-76
2022/06/27 06:44:24;;;;;;;9.23;3.17;;;24.30;97.80;;;;;;5081531;28;20499;-76
2022/06/27 06:46:51;;;;;;;13.85;5.05;;;24.40;97.50;;;;;;5074110;28;20031;-76
2022/06/27 06:49:16;;;;;;;13.15;4.35;;;24.50;97.50;;;;;;5081578;28;20024;-76
2022/06/27 06:51:42;;;;;;;6.88;3.50;;;24.60;97.70;;;;;;5083343;28;20028;-76
2022/06/27 06:54:15;;;;;;;9.68;4.60;;;24.60;97.50;;;;;;5081715;28;20040;-76
2022/06/27 06:56:41;;;;;;;8.45;3.58;;;24.70;97.40;;;;;;5085042;28;20484;-75
2022/06/27 06:59:07;;;;;;;14.13;4.32;;;24.70;97.20;;;;;;5087002;28;20043;-76
2022/06/27 07:01:35;;;;;;;14.57;3.72;;;24.90;96.90;;;;;;5084815;28;20035;-77
2022/06/27 07:04:02;;;;;;;8.70;3.40;;;25.00;96.60;;;;;;5088034;28;20047;-77
2022/06/27 07:06:29;;;;;;;16.63;5.03;;;25.10;96.90;;;;;;5086023;28;20027;-75
2022/06/27 07:08:57;;;;;;;10.57;3.50;;;25.30;96.70;;;;;;5085264;28;20039;-75
2022/06/27 07:11:28;;;;;;;15.18;4.72;;;25.40;96.70;;;;;;5086007;28;20050;-75
2022/06/27 07:13:56;;;;;;;10.82;3.38;;;25.60;97.00;;;;;;5086075;28;20173;-76
2022/06/27 07:16:24;;;;;;;11.38;4.13;;;25.70;96.90;;;;;;5083514;28;20071;-75
2022/06/27 07:18:50;;;;;;;16.17;4.10;;;25.90;96.10;;;;;;5085023;28;20697;-75
2022/06/27 07:21:17;;;;;;;10.00;3.90;;;26.10;96.20;;;;;;5082399;28;20044;-75
2022/06/27 07:23:46;;;;;;;9.90;3.85;;;26.10;96.20;;;;;;5087353;28;20020;-75
2022/06/27 07:26:12;;;;;;;11.30;4.18;;;26.40;96.00;;;;;;5077929;28;20059;-75
2022/06/27 07:28:38;;;;;;;10.73;4.07;;;26.60;95.90;;;;;;5085181;28;20110;-77
2022/06/27 07:31:08;;;;;;;8.80;3.88;;;26.90;95.70;;;;;;5082681;28;20040;-75
2022/06/27 07:33:36;;;;;;;11.48;3.67;;;27.30;95.60;;;;;;5085701;28;20040;-75
2022/06/27 07:36:03;;;;;;;12.07;3.97;;;27.80;94.80;;;;;;5087271;28;20525;-75
2022/06/27 07:38:32;;;;;;;9.82;3.50;;;28.50;94.50;;;;;;5087925;28;20115;-75
2022/06/27 07:40:58;;;;;;;9.93;3.72;;;29.00;93.60;;;;;;5087617;28;20036;-75
2022/06/27 07:43:24;;;;;;;10.32;3.25;;;29.60;92.90;;;;;;5082496;28;20115;-75
2022/06/27 07:45:51;;;;;;;21.98;4.13;;;29.80;92.70;;;;;;5087538;28;20036;-75
2022/06/27 07:48:20;;;;;;;7.50;2.90;;;29.80;91.80;;;;;;5086958;28;20086;-75
2022/06/27 07:50:46;;;;;;;11.02;3.50;;;29.60;91.90;;;;;;5085152;28;20024;-75
2022/06/27 07:53:17;;;;;;;12.73;3.28;;;29.40;92.10;;;;;;5086341;28;20028;-75
2022/06/27 07:55:50;;;;;;;9.75;3.35;;;29.10;92.40;;;;;;5087057;28;20389;-75
2022/06/27 07:58:17;;;;;;;9.98;3.92;;;28.90;93.10;;;;;;5086976;28;20039;-75
2022/06/27 08:00:44;;;;;;;9.77;4.22;;;28.70;93.40;;;;;;5085045;28;20417;-75
2022/06/27 08:05:57;;;;;;;11.43;3.63;;;28.50;93.60;;;;;;5085325;28;20643;-75
2022/06/27 08:08:23;;;;;;;11.93;4.18;;;28.60;93.20;;;;;;5085780;28;20032;-75
2022/06/27 08:10:50;;;;;;;13.10;4.50;;;28.90;93.00;;;;;;5086853;28;20474;-74
2022/06/27 08:13:16;;;;;;;12.70;3.80;;;28.80;93.00;;;;;;5086322;28;20028;-75
2022/06/27 08:15:42;;;;;;;11.48;4.70;;;28.90;92.60;;;;;;5086720;28;20039;-75
2022/06/27 08:18:09;;;;;;;17.17;3.30;;;29.00;92.50;;;;;;5083666;28;20038;-77
2022/06/27 08:20:35;;;;;;;12.02;3.60;;;29.00;92.50;;;;;;5089002;28;20044;-77
2022/06/27 08:23:02;;;;;;;9.77;3.55;;;29.00;92.40;;;;;;5084842;28;20456;-74
2022/06/27 08:25:28;;;;;;;9.70;4.45;;;29.00;92.40;;;;;;5084471;28;20054;-74
2022/06/27 08:27:55;;;;;;;8.50;3.53;;;28.90;92.30;;;;;;5083885;28;20024;-74
2022/06/27 08:30:25;;;;;;;10.75;3.83;;;28.80;92.00;;;;;;5085547;28;20494;-74
2022/06/27 08:32:58;;;;;;;12.10;3.75;;;28.90;92.20;;;;;;5085559;28;20531;-74
2022/06/27 08:35:24;;;;;;;12.57;4.45;;;29.00;92.40;;;;;;5084085;28;20150;-73
2022/06/27 08:37:51;;;;;;;9.38;4.05;;;28.90;92.00;;;;;;5082948;28;20945;-74
2022/06/27 08:40:17;;;;;;;11.88;3.78;;;29.10;91.90;;;;;;5085870;28;20040;-73
2022/06/27 08:42:44;;;;;;;11.18;3.80;;;29.10;91.90;;;;;;5085344;28;20028;-73
2022/06/27 08:45:15;;;;;;;11.80;3.78;;;29.00;91.90;;;;;;5083947;28;20035;-74
2022/06/27 08:47:41;;;;;;;8.07;3.97;;;29.10;92.40;;;;;;5085105;28;20047;-74
2022/06/27 08:50:11;;;;;;;9.40;3.75;;;29.10;92.10;;;;;;5083485;28;20039;-74
2022/06/27 08:52:41;;;;;;;12.73;3.92;;;29.30;92.00;;;;;;5078034;28;20071;-74
2022/06/27 08:55:11;;;;;;;14.13;4.68;;;29.30;91.80;;;;;;5082752;28;20039;-73
2022/06/27 08:57:39;;;;;;;8.93;3.78;;;29.40;91.70;;;;;;5084580;28;20032;-73
2022/06/27 09:00:06;;;;;;;7.97;3.50;;;29.30;91.40;;;;;;5076911;28;20028;-73
2022/06/27 09:02:41;;;;;;;12.18;3.92;;;29.50;91.60;;;;;;5084886;28;20040;-74
2022/06/27 09:05:15;;;;;;;11.35;4.18;;;29.80;91.60;;;;;;5085279;28;20485;-74
2022/06/27 09:07:52;;;;;;;13.48;4.35;;;29.70;91.70;;;;;;5080555;28;20110;-74
2022/06/27 09:10:33;;;;;;;11.73;4.60;;;29.60;91.50;;;;;;5084648;28;20031;-74
2022/06/27 09:13:06;;;;;;;7.68;3.45;;;29.90;91.70;;;;;;5080479;28;20028;-74
2022/06/27 09:15:51;;;;;;;6.97;3.70;;;30.30;91.40;;;;;;5083760;28;20036;-74
2022/06/27 09:18:25;;;;;;;10.82;3.65;;;30.10;91.40;;;;;;5085201;28;20032;-74
2022/06/27 09:21:13;;;;;;;17.73;4.97;;;30.00;91.30;;;;;;5083587;28;20070;-74
2022/06/27 09:23:47;;;;;;;7.90;3.65;;;30.30;91.40;;;;;;5085183;28;20477;-74
2022/06/27 09:26:30;;;;;;;11.75;3.90;;;30.40;91.30;;;;;;5081382;28;20036;-74
2022/06/27 09:29:04;;;;;;;9.50;3.50;;;30.60;91.40;;;;;;5083330;28;20810;-74
2022/06/27 09:31:38;;;;;;;11.13;4.18;;;30.70;91.20;;;;;;5084124;28;20067;-74
2022/06/27 09:34:14;;;;;;;9.00;3.50;;;30.60;91.10;;;;;;5082269;28;20067;-74
2022/06/27 09:36:47;;;;;;;11.40;3.72;;;30.80;91.30;;;;;;5082714;28;20505;-74
2022/06/27 09:39:34;;;;;;;12.63;4.20;;;30.70;90.50;;;;;;5082372;28;20119;-74
2022/06/27 09:42:02;;;;;;;12.32;4.05;;;30.80;90.90;;;;;;5080035;28;20043;-74
2022/06/27 09:44:33;;;;;;;14.25;4.03;;;31.20;90.60;;;;;;5083290;28;20032;-74
2022/06/27 09:47:04;;;;;;;10.73;3.42;;;31.00;90.40;;;;;;5079480;28;20474;-74
2022/06/27 09:49:33;;;;;;;8.20;3.50;;;31.20;90.40;;;;;;5084149;28;20043;-74
2022/06/27 09:52:04;;;;;;;8.98;3.80;;;31.30;90.00;;;;;;5084537;28;20027;-74
2022/06/27 09:54:30;;;;;;;7.28;3.15;;;31.30;89.80;;;;;;5083730;28;20032;-74
2022/06/27 09:56:58;;;;;;;17.35;3.33;;;31.30;90.10;;;;;;5083790;28;20051;-74
2022/06/27 09:59:24;;;;;;;8.93;3.38;;;31.40;89.80;;;;;;5081955;28;20046;-74
2022/06/27 10:01:51;;;;;;;8.70;3.65;;;31.50;89.80;;;;;;5084577;28;20036;-74
2022/06/27 10:04:17;;;;;;;11.45;3.60;;;31.10;88.50;;;;;;5082754;28;20024;-74
2022/06/27 10:06:43;;;;;;;11.32;4.18;;;31.30;90.00;;;;;;5082980;28;20533;-74
2022/06/27 10:09:12;;;;;;;10.10;3.45;;;31.30;90.00;;;;;;5084183;28;20043;-74
2022/06/27 10:11:38;;;;;;;10.90;3.28;;;31.50;89.70;;;;;;5084237;28;20685;-74
2022/06/27 10:14:13;;;;;;;8.95;4.05;;;31.10;89.20;;;;;;5084761;28;20633;-74
2022/06/27 10:17:14;;;;;;;14.88;3.42;;;31.50;89.90;;;;;;5076448;28;20114;-74
2022/06/27 10:20:00;;;;;;;10.07;3.97;;;31.60;88.40;;;;;;5057863;28;20038;-74
2022/06/27 10:22:26;;;;;;;9.90;3.92;;;31.70;87.90;;;;;;5083790;28;20040;-74
2022/06/27 10:24:52;;;;;;;9.70;3.83;;;32.10;88.90;;;;;;5083773;28;20067;-74
2022/06/27 10:27:44;;;;;;;10.35;3.33;;;32.10;89.00;;;;;;5084034;28;20642;-74
2022/06/27 10:30:49;;;;;;;14.27;4.32;;;32.20;88.40;;;;;;5081741;28;20109;-75
2022/06/27 10:33:26;;;;;;;10.70;3.55;;;32.10;87.50;;;;;;5050128;28;20063;-74
2022/06/27 10:36:10;;;;;;;10.77;3.58;;;32.00;87.50;;;;;;5082682;28;20043;-74
2022/06/27 10:38:39;;;;;;;12.68;4.15;;;32.10;88.10;;;;;;5080588;28;20474;-74
2022/06/27 10:41:09;;;;;;;10.00;4.22;;;32.00;87.10;;;;;;5083321;28;20047;-74
2022/06/27 10:43:39;;;;;;;11.82;3.83;;;32.20;89.70;;;;;;5083185;28;20484;-74
2022/06/27 10:46:11;;;;;;;10.38;3.90;;;32.60;88.10;;;;;;5083596;28;20449;-74
2022/06/27 10:48:42;;;;;;;9.35;3.90;;;32.50;87.30;;;;;;5084070;28;20024;-75
2022/06/27 10:51:28;;;;;;;7.32;3.15;;;32.90;86.00;;;;;;5081722;28;20481;-74
2022/06/27 10:54:06;;;;;;;9.43;3.20;;;32.70;85.90;;;;;;5081686;28;20077;-75
2022/06/27 10:56:44;;;;;;;12.05;4.32;;;32.60;87.10;;;;;;5082919;28;20032;-74
2022/06/27 10:59:13;;;;;;;9.27;3.95;;;33.20;86.60;;;;;;5082126;28;20081;-74
2022/06/27 11:02:05;;;;;;;6.82;3.00;;;32.90;85.50;;;;;;5082909;28;20098;-74
2022/06/27 11:04:32;;;;;;;7.80;2.75;;;33.00;85.70;;;;;;5079460;28;20036;-74
2022/06/27 11:07:07;;;;;;;9.25;3.53;;;33.30;86.00;;;;;;5078704;28;20043;-74
2022/06/27 11:09:43;;;;;;;8.50;3.50;;;32.90;85.10;;;;;;5082987;28;20032;-74
2022/06/27 11:12:10;;;;;;;9.43;3.33;;;32.60;86.60;;;;;;5083474;28;20036;-74
2022/06/27 11:15:00;;;;;;;11.27;3.25;;;32.90;85.70;;;;;;5082046;28;20035;-74
2022/06/27 11:17:37;;;;;;;10.68;3.10;;;33.10;86.00;;;;;;5083744;28;20028;-74
2022/06/27 11:20:25;;;;;;;11.98;3.65;;;32.80;85.00;;;;;;5082526;28;20024;-74
2022/06/27 11:22:59;;;;;;;10.32;3.28;;;33.00;84.80;;;;;;5081447;28;20118;-74
2022/06/27 11:25:27;;;;;;;9.25;2.45;;;33.00;85.40;;;;;;5078407;28;20055;-74
2022/06/27 11:27:57;;;;;;;8.05;2.85;;;33.20;84.40;;;;;;5082632;28;21045;-74
2022/06/27 11:33:30;;;;;;;10.15;2.78;;;33.50;80.90;;;;;;5081948;28;20413;-74
2022/06/27 11:35:56;;;;;;;9.30;2.88;;;33.70;83.30;;;;;;5082391;28;20055;-74
2022/06/27 11:38:42;;;;;;;10.00;2.72;;;33.40;82.10;;;;;;5082447;28;20028;-74
2022/06/27 11:41:13;;;;;;;9.32;3.10;;;33.20;81.70;;;;;;5078540;28;20098;-75
2022/06/27 11:43:45;;;;;;;12.43;3.10;;;33.70;82.80;;;;;;5081142;28;20477;-74
2022/06/27 11:46:45;;;;;;;10.80;3.33;;;33.50;80.90;;;;;;5084536;28;20592;-74
2022/06/27 11:49:14;;;;;;;11.27;3.33;;;33.50;81.20;;;;;;5079785;28;20462;-74
2022/06/27 11:51:44;;;;;;;19.50;4.13;;;34.00;80.50;;;;;;5084764;28;20114;-75
2022/06/27 11:54:40;;;;;;;31.27;5.20;;;34.10;81.30;;;;;;5084391;28;20028;-75
2022/06/27 11:57:25;;;;;;;11.65;3.80;;;34.20;80.10;;;;;;5083142;28;20044;-75
2022/06/27 11:59:53;;;;;;;12.63;3.65;;;33.80;81.20;;;;;;5084325;28;20028;-75
2022/06/27 12:02:36;;;;;;;12.43;3.50;;;33.30;82.20;;;;;;5085573;28;20039;-75
2022/06/27 12:05:02;;;;;;;;;;;33.60;81.20;;;;;;5087251;28;20043;-74
2022/06/27 12:07:27;;;;;;;9.00;2.90;;;34.30;80.40;;;;;;5087041;28;20273;-74
2022/06/27 12:09:53;;;;;;;10.18;2.47;;;34.50;79.00;;;;;;5086207;28;20028;-74
2022/06/27 12:12:20;;;;;;;11.52;3.15;;;34.20;80.20;;;;;;5086103;28;20448;-74
2022/06/27 12:14:48;;;;;;;11.25;3.67;;;34.50;81.60;;;;;;5083237;28;20535;-74
2022/06/27 12:17:15;;;;;;;14.68;3.15;;;34.70;82.80;;;;;;5086198;28;20028;-75
2022/06/27 12:19:41;;;;;;;9.63;3.67;;;34.80;81.10;;;;;;5084080;28;20458;-74
2022/06/27 12:22:08;;;;;;;8.70;3.35;;;34.50;80.00;;;;;;5085346;28;20105;-74
2022/06/27 12:24:33;;;;;;;10.10;3.63;;;34.70;81.50;;;;;;5084214;28;20047;-75
2022/06/27 12:26:59;;;;;;;12.52;3.10;;;34.40;79.70;;;;;;5085650;28;20468;-74
2022/06/27 12:29:25;;;;;;;14.70;3.35;;;34.60;80.70;;;;;;5084390;28;20036;-74
2022/06/27 12:31:50;;;;;;;11.55;2.97;;;34.40;81.10;;;;;;5084972;28;20570;-74
2022/06/27 12:34:16;;;;;;;14.57;3.92;;;34.40;80.70;;;;;;5085913;28;20039;-74
2022/06/27 12:36:42;;;;;;;11.75;3.80;;;34.20;81.90;;;;;;5083645;28;20051;-75
2022/06/27 12:39:08;;;;;;;15.30;3.53;;;34.40;81.60;;;;;;5086512;28;20107;-75
2022/06/27 12:41:36;;;;;;;11.68;3.40;;;34.60;81.10;;;;;;5085785;28;20046;-75
2022/06/27 12:44:02;;;;;;;11.85;3.60;;;34.20;81.50;;;;;;5078109;28;20042;-75
2022/06/27 12:46:28;;;;;;;16.13;3.85;;;33.90;81.90;;;;;;5085745;28;20036;-75
2022/06/27 12:48:55;;;;;;;13.00;4.10;;;33.40;81.70;;;;;;5084004;28;20055;-75
2022/06/27 12:51:22;;;;;;;12.40;3.80;;;33.40;82.30;;;;;;5085343;28;20097;-75
2022/06/27 12:53:48;;;;;;;13.95;3.33;;;33.40;81.90;;;;;;5085445;28;20024;-75
2022/06/27 12:56:14;;;;;;;12.77;4.47;;;33.60;81.50;;;;;;5082982;28;20032;-74